sensor_id;sensor_type;location;lat;lon;timestamp;pressure;altitude;pressure_sealevel;temperature;humidity
43711;BME280;29309;42.682;23.372;2023-05-13T00:00:27;95624.94;;;8.65;70.69
43711;BME280;29309;42.682;23.372;2023-05-13T00:02:53;95612.09;;;8.70;71.13
43711;BME280;29309;42.682;23.372;2023-05-13T00:05:19;95614.97;;;8.72;71.69
43711;BME280;29309;42.682;23.372;2023-05-13T00:07:44;95608.72;;;8.71;70.04
43711;BME280;29309;42.682;23.372;2023-05-13T00:10:10;95616.41;;;8.73;70.15
43711;BME280;29309;42.682;23.372;2023-05-13T00:12:36;95614.97;;;8.72;68.91
43711;BME280;29309;42.682;23.372;2023-05-13T00:15:02;95624.97;;;8.77;67.47
43711;BME280;29309;42.682;23.372;2023-05-13T00:17:30;95627.91;;;8.79;67.56
43711;BME280;29309;42.682;23.372;2023-05-13T00:19:55;95635.25;;;8.86;66.67
43711;BME280;29309;42.682;23.372;2023-05-13T00:22:21;95631.88;;;8.87;66.16
43711;BME280;29309;42.682;23.372;2023-05-13T00:24:46;95626.59;;;8.92;66.26
43711;BME280;29309;42.682;23.372;2023-05-13T00:27:11;95636.94;;;8.91;63.89
43711;BME280;29309;42.682;23.372;2023-05-13T00:29:37;95633.59;;;8.93;62.65
43711;BME280;29309;42.682;23.372;2023-05-13T00:32:02;95635.06;;;9.05;62.96
43711;BME280;29309;42.682;23.372;2023-05-13T00:34:28;95639.03;;;9.02;62.98
43711;BME280;29309;42.682;23.372;2023-05-13T00:36:53;95654.59;;;9.07;62.87
43711;BME280;29309;42.682;23.372;2023-05-13T00:39:19;95658.19;;;9.10;60.82
43711;BME280;29309;42.682;23.372;2023-05-13T00:41:44;95640.59;;;9.05;61.89
43711;BME280;29309;42.682;23.372;2023-05-13T00:44:09;95637.25;;;9.07;62.74
43711;BME280;29309;42.682;23.372;2023-05-13T00:46:35;95646.13;;;9.05;62.21
43711;BME280;29309;42.682;23.372;2023-05-13T00:49:01;95653.84;;;9.07;61.81
43711;BME280;29309;42.682;23.372;2023-05-13T00:51:30;95635.53;;;9.02;61.59
43711;BME280;29309;42.682;23.372;2023-05-13T00:53:57;95648.91;;;9.05;62.20
43711;BME280;29309;42.682;23.372;2023-05-13T00:56:24;95658.78;;;9.08;61.87
43711;BME280;29309;42.682;23.372;2023-05-13T00:58:50;95654.59;;;9.07;61.51
43711;BME280;29309;42.682;23.372;2023-05-13T01:01:37;95643.50;;;9.07;61.86
43711;BME280;29309;42.682;23.372;2023-05-13T01:04:14;95632.19;;;9.03;61.23
43711;BME280;29309;42.682;23.372;2023-05-13T01:07:08;95617.72;;;9.05;61.78
43711;BME280;29309;42.682;23.372;2023-05-13T01:12:23;95628.69;;;9.03;60.98
43711;BME280;29309;42.682;23.372;2023-05-13T01:15:00;95632.91;;;9.04;60.95
43711;BME280;29309;42.682;23.372;2023-05-13T01:17:32;95637.34;;;9.09;60.54
43711;BME280;29309;42.682;23.372;2023-05-13T01:20:01;95646.28;;;9.07;60.24
43711;BME280;29309;42.682;23.372;2023-05-13T01:22:28;95646.13;;;9.05;60.66
43711;BME280;29309;42.682;23.372;2023-05-13T01:24:54;95653.84;;;9.07;60.44
43711;BME280;29309;42.682;23.372;2023-05-13T01:27:19;95652.66;;;9.10;60.17
43711;BME280;29309;42.682;23.372;2023-05-13T01:29:46;95653.38;;;9.10;60.56
43711;BME280;29309;42.682;23.372;2023-05-13T01:32:12;95666.88;;;9.16;60.52
43711;BME280;29309;42.682;23.372;2023-05-13T01:34:38;95666.50;;;9.10;60.61
43711;BME280;29309;42.682;23.372;2023-05-13T01:37:05;95661.44;;;9.06;61.52
43711;BME280;29309;42.682;23.372;2023-05-13T01:39:31;95647.97;;;9.12;61.85
43711;BME280;29309;42.682;23.372;2023-05-13T01:41:57;95650.47;;;9.08;61.61
43711;BME280;29309;42.682;23.372;2023-05-13T01:44:23;95656.16;;;9.10;63.27
43711;BME280;29309;42.682;23.372;2023-05-13T01:46:48;95656.28;;;9.12;62.27
43711;BME280;29309;42.682;23.372;2023-05-13T01:49:15;95644.34;;;9.10;62.98
43711;BME280;29309;42.682;23.372;2023-05-13T01:51:40;95652.78;;;9.12;63.14
43711;BME280;29309;42.682;23.372;2023-05-13T01:54:06;95649.31;;;9.11;63.19
43711;BME280;29309;42.682;23.372;2023-05-13T01:56:31;95638.69;;;9.08;62.48
43711;BME280;29309;42.682;23.372;2023-05-13T01:58:57;95646.88;;;9.06;62.06
43711;BME280;29309;42.682;23.372;2023-05-13T02:01:22;95647.59;;;9.06;62.03
43711;BME280;29309;42.682;23.372;2023-05-13T02:03:48;95648.44;;;9.09;62.36
43711;BME280;29309;42.682;23.372;2023-05-13T02:06:14;95644.09;;;9.06;62.48
43711;BME280;29309;42.682;23.372;2023-05-13T02:08:40;95643.00;;;8.99;60.85
43711;BME280;29309;42.682;23.372;2023-05-13T02:11:05;95643.50;;;9.07;62.15
43711;BME280;29309;42.682;23.372;2023-05-13T02:13:31;95642.78;;;9.07;62.11
43711;BME280;29309;42.682;23.372;2023-05-13T02:15:56;95639.28;;;9.06;60.97
43711;BME280;29309;42.682;23.372;2023-05-13T02:18:22;95649.50;;;9.04;60.83
43711;BME280;29309;42.682;23.372;2023-05-13T02:20:48;95658.56;;;9.04;61.58
43711;BME280;29309;42.682;23.372;2023-05-13T02:23:13;95650.09;;;9.02;61.72
43711;BME280;29309;42.682;23.372;2023-05-13T02:25:40;95657.56;;;9.00;61.50
43711;BME280;29309;42.682;23.372;2023-05-13T02:28:06;95649.47;;;8.92;61.27
43711;BME280;29309;42.682;23.372;2023-05-13T02:30:31;95646.09;;;8.94;62.05
43711;BME280;29309;42.682;23.372;2023-05-13T02:32:57;95653.69;;;8.93;61.93
43711;BME280;29309;42.682;23.372;2023-05-13T02:35:22;95660.06;;;8.96;61.92
43711;BME280;29309;42.682;23.372;2023-05-13T02:37:49;95664.31;;;8.97;61.22
43711;BME280;29309;42.682;23.372;2023-05-13T02:40:15;95668.38;;;8.96;61.43
43711;BME280;29309;42.682;23.372;2023-05-13T02:42:40;95661.03;;;8.88;61.35
43711;BME280;29309;42.682;23.372;2023-05-13T02:45:08;95664.50;;;8.89;62.62
43711;BME280;29309;42.682;23.372;2023-05-13T02:47:34;95651.00;;;8.83;63.08
43711;BME280;29309;42.682;23.372;2023-05-13T02:49:59;95662.22;;;8.85;62.55
43711;BME280;29309;42.682;23.372;2023-05-13T02:52:25;95660.88;;;8.86;61.90
43711;BME280;29309;42.682;23.372;2023-05-13T02:54:50;95647.97;;;8.79;63.04
43711;BME280;29309;42.682;23.372;2023-05-13T02:57:16;95666.75;;;8.81;63.60
43711;BME280;29309;42.682;23.372;2023-05-13T02:59:41;95676.25;;;8.78;64.09
43711;BME280;29309;42.682;23.372;2023-05-13T03:02:06;95682.38;;;8.76;64.93
43711;BME280;29309;42.682;23.372;2023-05-13T03:04:32;95677.97;;;8.83;65.40
43711;BME280;29309;42.682;23.372;2023-05-13T03:06:58;95683.63;;;8.85;65.33
43711;BME280;29309;42.682;23.372;2023-05-13T03:09:23;95684.44;;;8.76;66.21
43711;BME280;29309;42.682;23.372;2023-05-13T03:11:48;95685.88;;;8.77;65.70
43711;BME280;29309;42.682;23.372;2023-05-13T03:14:14;95674.94;;;8.79;65.74
43711;BME280;29309;42.682;23.372;2023-05-13T03:16:40;95680.22;;;8.75;66.33
43711;BME280;29309;42.682;23.372;2023-05-13T03:19:05;95690.31;;;8.70;65.46
43711;BME280;29309;42.682;23.372;2023-05-13T03:21:31;95687.84;;;8.65;65.73
43711;BME280;29309;42.682;23.372;2023-05-13T03:23:56;95688.13;;;8.69;66.94
43711;BME280;29309;42.682;23.372;2023-05-13T03:26:22;95671.66;;;8.71;67.04
43711;BME280;29309;42.682;23.372;2023-05-13T03:28:47;95688.28;;;8.71;67.02
43711;BME280;29309;42.682;23.372;2023-05-13T03:31:13;95693.06;;;8.70;66.78
43711;BME280;29309;42.682;23.372;2023-05-13T03:33:38;95693.19;;;8.72;66.66
43711;BME280;29309;42.682;23.372;2023-05-13T03:36:04;95688.38;;;8.73;66.65
43711;BME280;29309;42.682;23.372;2023-05-13T03:38:31;95692.47;;;8.72;66.34
43711;BME280;29309;42.682;23.372;2023-05-13T03:40:57;95695.22;;;8.72;66.24
43711;BME280;29309;42.682;23.372;2023-05-13T03:43:22;95706.31;;;8.72;66.63
43711;BME280;29309;42.682;23.372;2023-05-13T03:45:48;95698.00;;;8.72;67.20
43711;BME280;29309;42.682;23.372;2023-05-13T03:48:14;95703.16;;;8.66;66.86
43711;BME280;29309;42.682;23.372;2023-05-13T03:50:40;95705.91;;;8.66;66.57
43711;BME280;29309;42.682;23.372;2023-05-13T03:53:05;95700.38;;;8.66;66.16
43711;BME280;29309;42.682;23.372;2023-05-13T03:55:31;95704.59;;;8.67;66.56
43711;BME280;29309;42.682;23.372;2023-05-13T03:57:57;95710.53;;;8.73;67.56
43711;BME280;29309;42.682;23.372;2023-05-13T04:00:23;95717.53;;;8.74;67.12
43711;BME280;29309;42.682;23.372;2023-05-13T04:02:48;95716.06;;;8.73;66.61
43711;BME280;29309;42.682;23.372;2023-05-13T04:05:14;95725.22;;;8.75;66.41
43711;BME280;29309;42.682;23.372;2023-05-13T04:07:39;95733.09;;;8.79;64.73
43711;BME280;29309;42.682;23.372;2023-05-13T04:10:06;95731.75;;;8.80;64.44
43711;BME280;29309;42.682;23.372;2023-05-13T04:12:31;95741.38;;;8.79;63.38
43711;BME280;29309;42.682;23.372;2023-05-13T04:14:58;95733.94;;;8.81;63.19
43711;BME280;29309;42.682;23.372;2023-05-13T04:17:24;95735.50;;;8.84;63.25
43711;BME280;29309;42.682;23.372;2023-05-13T04:19:53;95738.81;;;8.93;62.90
43711;BME280;29309;42.682;23.372;2023-05-13T04:22:19;95739.53;;;8.93;62.52
43711;BME280;29309;42.682;23.372;2023-05-13T04:24:45;95740.38;;;8.96;62.27
43711;BME280;29309;42.682;23.372;2023-05-13T04:27:10;95737.34;;;8.92;61.50
43711;BME280;29309;42.682;23.372;2023-05-13T04:29:35;95741.78;;;8.85;61.59
43711;BME280;29309;42.682;23.372;2023-05-13T04:32:01;95746.22;;;8.90;61.40
43711;BME280;29309;42.682;23.372;2023-05-13T04:34:26;95740.00;;;8.89;61.14
43711;BME280;29309;42.682;23.372;2023-05-13T04:36:52;95747.69;;;8.91;61.77
43711;BME280;29309;42.682;23.372;2023-05-13T04:39:17;95759.38;;;8.89;62.38
43711;BME280;29309;42.682;23.372;2023-05-13T04:41:42;95760.59;;;8.98;62.49
43711;BME280;29309;42.682;23.372;2023-05-13T04:44:08;95766.09;;;9.08;63.24
43711;BME280;29309;42.682;23.372;2023-05-13T04:46:33;95764.44;;;9.14;62.71
43711;BME280;29309;42.682;23.372;2023-05-13T04:48:59;95756.50;;;9.20;62.67
43711;BME280;29309;42.682;23.372;2023-05-13T04:51:25;95751.22;;;9.24;62.61
43711;BME280;29309;42.682;23.372;2023-05-13T04:53:50;95764.00;;;9.29;62.88
43711;BME280;29309;42.682;23.372;2023-05-13T04:56:16;95759.44;;;9.34;62.41
43711;BME280;29309;42.682;23.372;2023-05-13T04:58:41;95753.44;;;9.37;62.28
43711;BME280;29309;42.682;23.372;2023-05-13T05:01:07;95754.78;;;9.48;62.15
43711;BME280;29309;42.682;23.372;2023-05-13T05:03:32;95752.72;;;9.49;62.30
43711;BME280;29309;42.682;23.372;2023-05-13T05:05:58;95746.50;;;9.60;63.27
43711;BME280;29309;42.682;23.372;2023-05-13T05:08:23;95748.00;;;9.72;63.25
43711;BME280;29309;42.682;23.372;2023-05-13T05:10:48;95753.41;;;9.82;63.04
43711;BME280;29309;42.682;23.372;2023-05-13T05:13:14;95744.97;;;9.92;62.01
43711;BME280;29309;42.682;23.372;2023-05-13T05:15:39;95747.53;;;9.99;61.24
43711;BME280;29309;42.682;23.372;2023-05-13T05:18:05;95753.69;;;10.09;61.09
43711;BME280;29309;42.682;23.372;2023-05-13T05:20:31;95761.31;;;10.20;60.94
43711;BME280;29309;42.682;23.372;2023-05-13T05:22:56;95755.28;;;10.35;60.80
43711;BME280;29309;42.682;23.372;2023-05-13T05:25:22;95748.75;;;10.43;57.12
43711;BME280;29309;42.682;23.372;2023-05-13T05:27:48;95757.91;;;10.57;56.38
43711;BME280;29309;42.682;23.372;2023-05-13T05:30:14;95761.41;;;10.69;55.82
43711;BME280;29309;42.682;23.372;2023-05-13T05:32:39;95760.44;;;10.76;55.28
43711;BME280;29309;42.682;23.372;2023-05-13T05:35:05;95755.34;;;10.84;55.75
43711;BME280;29309;42.682;23.372;2023-05-13T05:37:31;95754.47;;;10.93;56.31
43711;BME280;29309;42.682;23.372;2023-05-13T05:39:57;95752.16;;;11.01;55.83
43711;BME280;29309;42.682;23.372;2023-05-13T05:42:22;95757.44;;;11.09;55.37
43711;BME280;29309;42.682;23.372;2023-05-13T05:44:48;95762.50;;;11.12;55.00
43711;BME280;29309;42.682;23.372;2023-05-13T05:47:13;95751.72;;;11.18;54.73
43711;BME280;29309;42.682;23.372;2023-05-13T05:49:38;95763.81;;;11.23;54.90
43711;BME280;29309;42.682;23.372;2023-05-13T05:52:04;95752.25;;;11.40;56.22
43711;BME280;29309;42.682;23.372;2023-05-13T05:54:30;95753.53;;;11.51;54.47
43711;BME280;29309;42.682;23.372;2023-05-13T05:56:55;95760.25;;;11.59;53.69
43711;BME280;29309;42.682;23.372;2023-05-13T05:59:21;95753.91;;;11.70;54.38
43711;BME280;29309;42.682;23.372;2023-05-13T06:01:46;95764.22;;;11.93;54.63
43711;BME280;29309;42.682;23.372;2023-05-13T06:04:12;95755.41;;;12.24;54.24
43711;BME280;29309;42.682;23.372;2023-05-13T06:06:37;95759.84;;;12.70;54.51
43711;BME280;29309;42.682;23.372;2023-05-13T06:09:04;95764.88;;;13.14;52.97
43711;BME280;29309;42.682;23.372;2023-05-13T06:11:31;95768.84;;;13.68;51.97
43711;BME280;29309;42.682;23.372;2023-05-13T06:13:57;95754.22;;;14.14;49.61
43711;BME280;29309;42.682;23.372;2023-05-13T06:16:22;95764.09;;;14.47;49.05
43711;BME280;29309;42.682;23.372;2023-05-13T06:18:48;95761.72;;;14.57;46.22
43711;BME280;29309;42.682;23.372;2023-05-13T06:21:13;95759.47;;;14.53;46.49
43711;BME280;29309;42.682;23.372;2023-05-13T06:23:39;95763.72;;;14.39;43.72
43711;BME280;29309;42.682;23.372;2023-05-13T06:26:05;95767.84;;;14.06;44.05
43711;BME280;29309;42.682;23.372;2023-05-13T06:28:30;95766.81;;;13.84;44.04
43711;BME280;29309;42.682;23.372;2023-05-13T06:30:55;95768.63;;;13.64;43.68
43711;BME280;29309;42.682;23.372;2023-05-13T06:33:21;95769.81;;;13.59;44.79
43711;BME280;29309;42.682;23.372;2023-05-13T06:35:47;95784.28;;;13.55;45.31
43711;BME280;29309;42.682;23.372;2023-05-13T06:38:14;95775.81;;;13.53;45.44
43711;BME280;29309;42.682;23.372;2023-05-13T06:40:42;95778.75;;;13.42;46.10
43711;BME280;29309;42.682;23.372;2023-05-13T06:43:08;95771.94;;;13.45;46.50
43711;BME280;29309;42.682;23.372;2023-05-13T06:45:33;95776.53;;;13.54;46.65
43711;BME280;29309;42.682;23.372;2023-05-13T06:47:59;95770.63;;;13.61;45.92
43711;BME280;29309;42.682;23.372;2023-05-13T06:50:25;95764.91;;;13.73;45.59
43711;BME280;29309;42.682;23.372;2023-05-13T06:52:50;95766.53;;;13.78;44.58
43711;BME280;29309;42.682;23.372;2023-05-13T06:55:15;95775.91;;;13.85;44.82
43711;BME280;29309;42.682;23.372;2023-05-13T06:57:43;95767.72;;;13.89;45.29
43711;BME280;29309;42.682;23.372;2023-05-13T07:00:11;95769.09;;;14.03;44.36
43711;BME280;29309;42.682;23.372;2023-05-13T07:02:37;95773.75;;;14.14;44.34
43711;BME280;29309;42.682;23.372;2023-05-13T07:05:03;95779.91;;;14.26;44.77
43711;BME280;29309;42.682;23.372;2023-05-13T07:07:29;95775.94;;;14.32;44.94
43711;BME280;29309;42.682;23.372;2023-05-13T07:09:54;95775.59;;;14.23;44.49
43711;BME280;29309;42.682;23.372;2023-05-13T07:12:20;95778.81;;;14.34;44.59
43711;BME280;29309;42.682;23.372;2023-05-13T07:14:45;95792.53;;;14.59;43.35
43711;BME280;29309;42.682;23.372;2023-05-13T07:17:11;95788.03;;;14.52;42.46
43711;BME280;29309;42.682;23.372;2023-05-13T07:19:36;95797.41;;;14.58;43.03
43711;BME280;29309;42.682;23.372;2023-05-13T07:22:02;95797.31;;;14.72;43.32
43711;BME280;29309;42.682;23.372;2023-05-13T07:24:27;95794.69;;;14.76;43.42
43711;BME280;29309;42.682;23.372;2023-05-13T07:26:52;95794.78;;;14.78;42.85
43711;BME280;29309;42.682;23.372;2023-05-13T07:29:18;95797.47;;;14.76;43.60
43711;BME280;29309;42.682;23.372;2023-05-13T07:31:43;95803.34;;;14.82;43.06
43711;BME280;29309;42.682;23.372;2023-05-13T07:34:09;95797.16;;;15.01;43.37
43711;BME280;29309;42.682;23.372;2023-05-13T07:36:34;95796.63;;;15.05;42.61
43711;BME280;29309;42.682;23.372;2023-05-13T07:39:00;95801.97;;;14.99;43.14
43711;BME280;29309;42.682;23.372;2023-05-13T07:41:26;95791.75;;;15.05;43.37
43711;BME280;29309;42.682;23.372;2023-05-13T07:43:51;95793.63;;;15.16;43.10
43711;BME280;29309;42.682;23.372;2023-05-13T07:46:17;95785.06;;;15.12;43.02
43711;BME280;29309;42.682;23.372;2023-05-13T07:48:43;95787.72;;;15.26;43.30
43711;BME280;29309;42.682;23.372;2023-05-13T07:51:08;95788.34;;;15.24;44.01
43711;BME280;29309;42.682;23.372;2023-05-13T07:53:34;95789.41;;;15.33;44.00
43711;BME280;29309;42.682;23.372;2023-05-13T07:56:01;95793.25;;;15.42;44.33
43711;BME280;29309;42.682;23.372;2023-05-13T07:58:26;95796.75;;;15.75;44.05
43711;BME280;29309;42.682;23.372;2023-05-13T08:00:52;95794.72;;;16.13;43.63
43711;BME280;29309;42.682;23.372;2023-05-13T08:03:17;95788.84;;;16.62;44.85
43711;BME280;29309;42.682;23.372;2023-05-13T08:05:43;95798.41;;;17.14;42.39
43711;BME280;29309;42.682;23.372;2023-05-13T08:08:08;95795.13;;;17.42;42.38
43711;BME280;29309;42.682;23.372;2023-05-13T08:10:34;95790.25;;;17.64;40.94
43711;BME280;29309;42.682;23.372;2023-05-13T08:12:59;95785.59;;;17.73;41.66
43711;BME280;29309;42.682;23.372;2023-05-13T08:15:25;95785.53;;;17.92;41.39
43711;BME280;29309;42.682;23.372;2023-05-13T08:17:51;95776.09;;;18.05;41.05
43711;BME280;29309;42.682;23.372;2023-05-13T08:20:18;95776.59;;;18.22;40.61
43711;BME280;29309;42.682;23.372;2023-05-13T08:22:43;95776.03;;;18.27;40.44
43711;BME280;29309;42.682;23.372;2023-05-13T08:25:09;95772.03;;;18.34;39.76
43711;BME280;29309;42.682;23.372;2023-05-13T08:27:37;95777.50;;;17.83;41.96
43711;BME280;29309;42.682;23.372;2023-05-13T08:30:04;95781.00;;;18.05;41.94
43711;BME280;29309;42.682;23.372;2023-05-13T08:32:29;95775.03;;;18.16;41.63
43711;BME280;29309;42.682;23.372;2023-05-13T08:34:54;95775.50;;;18.33;40.98
43711;BME280;29309;42.682;23.372;2023-05-13T08:37:20;95771.00;;;18.24;40.96
43711;BME280;29309;42.682;23.372;2023-05-13T08:39:46;95770.66;;;18.11;41.12
43711;BME280;29309;42.682;23.372;2023-05-13T08:42:11;95772.03;;;18.10;41.90
43711;BME280;29309;42.682;23.372;2023-05-13T08:44:43;95766.53;;;18.14;41.86
43711;BME280;29309;42.682;23.372;2023-05-13T08:47:18;95761.53;;;18.11;42.10
43711;BME280;29309;42.682;23.372;2023-05-13T08:49:50;95756.53;;;18.09;41.98
43711;BME280;29309;42.682;23.372;2023-05-13T08:52:17;95759.59;;;18.17;42.32
43711;BME280;29309;42.682;23.372;2023-05-13T08:54:45;95754.34;;;18.30;41.26
43711;BME280;29309;42.682;23.372;2023-05-13T08:57:11;95753.47;;;18.49;41.71
43711;BME280;29309;42.682;23.372;2023-05-13T08:59:37;95754.56;;;18.61;40.51
43711;BME280;29309;42.682;23.372;2023-05-13T09:02:03;95752.38;;;18.58;39.72
43711;BME280;29309;42.682;23.372;2023-05-13T09:04:29;95745.59;;;18.43;40.54
43711;BME280;29309;42.682;23.372;2023-05-13T09:06:55;95744.53;;;18.31;40.38
43711;BME280;29309;42.682;23.372;2023-05-13T09:09:22;95735.50;;;18.34;42.15
43711;BME280;29309;42.682;23.372;2023-05-13T09:11:47;95729.63;;;18.50;42.56
43711;BME280;29309;42.682;23.372;2023-05-13T09:14:13;95732.84;;;18.64;40.76
43711;BME280;29309;42.682;23.372;2023-05-13T09:16:42;95727.53;;;18.50;41.04
43711;BME280;29309;42.682;23.372;2023-05-13T09:19:08;95730.16;;;18.68;40.92
43711;BME280;29309;42.682;23.372;2023-05-13T09:21:35;95730.25;;;18.72;39.99
43711;BME280;29309;42.682;23.372;2023-05-13T09:24:08;95733.94;;;18.53;40.27
43711;BME280;29309;42.682;23.372;2023-05-13T09:26:34;95728.09;;;18.45;40.54
43711;BME280;29309;42.682;23.372;2023-05-13T09:31:47;95730.97;;;18.73;41.20
43711;BME280;29309;42.682;23.372;2023-05-13T09:34:13;95727.88;;;18.39;41.91
43711;BME280;29309;42.682;23.372;2023-05-13T09:36:39;95727.78;;;18.35;42.15
43711;BME280;29309;42.682;23.372;2023-05-13T09:39:05;95723.75;;;18.42;41.98
43711;BME280;29309;42.682;23.372;2023-05-13T09:41:31;95721.75;;;18.44;42.96
43711;BME280;29309;42.682;23.372;2023-05-13T09:43:57;95725.00;;;18.60;42.36
43711;BME280;29309;42.682;23.372;2023-05-13T09:46:24;95719.16;;;18.78;41.68
43711;BME280;29309;42.682;23.372;2023-05-13T09:48:49;95712.84;;;19.05;42.61
43711;BME280;29309;42.682;23.372;2023-05-13T09:51:29;95709.09;;;19.25;40.96
43711;BME280;29309;42.682;23.372;2023-05-13T09:54:04;95719.56;;;19.20;41.56
43711;BME280;29309;42.682;23.372;2023-05-13T09:56:31;95722.94;;;19.14;41.83
43711;BME280;29309;42.682;23.372;2023-05-13T09:58:57;95710.69;;;19.04;41.67
43711;BME280;29309;42.682;23.372;2023-05-13T10:01:24;95705.13;;;19.06;43.02
43711;BME280;29309;42.682;23.372;2023-05-13T10:03:51;95704.19;;;18.97;42.23
43711;BME280;29309;42.682;23.372;2023-05-13T10:06:18;95707.66;;;18.96;42.06
43711;BME280;29309;42.682;23.372;2023-05-13T10:08:48;95708.59;;;19.04;42.58
43711;BME280;29309;42.682;23.372;2023-05-13T10:11:16;95711.56;;;19.10;42.86
43711;BME280;29309;42.682;23.372;2023-05-13T10:13:46;95710.94;;;19.14;43.49
43711;BME280;29309;42.682;23.372;2023-05-13T10:16:14;95712.91;;;19.35;43.56
43711;BME280;29309;42.682;23.372;2023-05-13T10:18:40;95708.16;;;19.42;42.69
43711;BME280;29309;42.682;23.372;2023-05-13T10:21:06;95709.47;;;19.39;41.95
43711;BME280;29309;42.682;23.372;2023-05-13T10:23:32;95703.66;;;19.33;42.09
43711;BME280;29309;42.682;23.372;2023-05-13T10:25:58;95711.78;;;19.18;42.36
43711;BME280;29309;42.682;23.372;2023-05-13T10:28:24;95701.63;;;19.07;42.93
43711;BME280;29309;42.682;23.372;2023-05-13T10:30:50;95694.13;;;19.16;43.56
43711;BME280;29309;42.682;23.372;2023-05-13T10:33:17;95693.06;;;19.01;43.08
43711;BME280;29309;42.682;23.372;2023-05-13T10:38:57;95690.78;;;19.24;42.69
43711;BME280;29309;42.682;23.372;2023-05-13T10:41:34;95694.47;;;19.30;43.06
43711;BME280;29309;42.682;23.372;2023-05-13T10:44:03;95696.53;;;19.28;42.71
43711;BME280;29309;42.682;23.372;2023-05-13T10:46:33;95694.25;;;19.22;43.63
43711;BME280;29309;42.682;23.372;2023-05-13T10:48:58;95703.94;;;19.15;43.05
43711;BME280;29309;42.682;23.372;2023-05-13T10:51:24;95702.84;;;19.28;43.63
43711;BME280;29309;42.682;23.372;2023-05-13T10:53:55;95705.72;;;19.30;43.44
43711;BME280;29309;42.682;23.372;2023-05-13T10:56:26;95701.44;;;19.27;44.22
43711;BME280;29309;42.682;23.372;2023-05-13T10:59:03;95699.25;;;19.24;44.39
43711;BME280;29309;42.682;23.372;2023-05-13T11:01:38;95707.06;;;19.27;44.06
43711;BME280;29309;42.682;23.372;2023-05-13T11:04:15;95710.59;;;19.28;43.30
43711;BME280;29309;42.682;23.372;2023-05-13T11:06:45;95707.63;;;19.22;42.84
43711;BME280;29309;42.682;23.372;2023-05-13T11:09:28;95700.88;;;19.05;42.91
43711;BME280;29309;42.682;23.372;2023-05-13T11:11:56;95704.81;;;18.94;43.70
43711;BME280;29309;42.682;23.372;2023-05-13T11:14:26;95697.13;;;18.96;44.17
43711;BME280;29309;42.682;23.372;2023-05-13T11:16:53;95701.03;;;19.11;44.32
43711;BME280;29309;42.682;23.372;2023-05-13T11:19:34;95692.81;;;19.21;43.48
43711;BME280;29309;42.682;23.372;2023-05-13T11:22:13;95695.72;;;18.95;43.69
43711;BME280;29309;42.682;23.372;2023-05-13T11:24:39;95689.31;;;18.93;42.91
43711;BME280;29309;42.682;23.372;2023-05-13T11:27:13;95681.03;;;18.99;42.49
43711;BME280;29309;42.682;23.372;2023-05-13T11:29:49;95681.78;;;19.01;43.49
43711;BME280;29309;42.682;23.372;2023-05-13T11:35:26;95671.50;;;19.12;44.37
43711;BME280;29309;42.682;23.372;2023-05-13T11:37:53;95663.88;;;19.16;43.13
43711;BME280;29309;42.682;23.372;2023-05-13T11:40:30;95657.75;;;19.24;43.23
43711;BME280;29309;42.682;23.372;2023-05-13T11:42:57;95663.50;;;19.30;42.70
43711;BME280;29309;42.682;23.372;2023-05-13T11:45:23;95661.09;;;19.18;42.68
43711;BME280;29309;42.682;23.372;2023-05-13T11:47:50;95658.16;;;18.85;43.07
43711;BME280;29309;42.682;23.372;2023-05-13T11:50:21;95655.16;;;18.77;43.25
43711;BME280;29309;42.682;23.372;2023-05-13T11:52:54;95642.59;;;18.82;44.03
43711;BME280;29309;42.682;23.372;2023-05-13T11:55:33;95650.84;;;19.01;44.12
43711;BME280;29309;42.682;23.372;2023-05-13T11:58:02;95646.16;;;19.12;42.63
43711;BME280;29309;42.682;23.372;2023-05-13T12:00:29;95642.63;;;19.11;41.99
43711;BME280;29309;42.682;23.372;2023-05-13T12:02:56;95632.31;;;19.20;41.82
43711;BME280;29309;42.682;23.372;2023-05-13T12:05:22;95640.06;;;19.22;41.92
43711;BME280;29309;42.682;23.372;2023-05-13T12:07:48;95643.50;;;19.18;42.33
43711;BME280;29309;42.682;23.372;2023-05-13T12:10:13;95642.88;;;19.22;42.08
43711;BME280;29309;42.682;23.372;2023-05-13T12:12:41;95641.25;;;19.12;41.95
43711;BME280;29309;42.682;23.372;2023-05-13T12:15:16;95639.16;;;19.13;41.54
43711;BME280;29309;42.682;23.372;2023-05-13T12:17:41;95630.09;;;19.16;41.61
43711;BME280;29309;42.682;23.372;2023-05-13T12:20:14;95633.47;;;19.11;41.85
43711;BME280;29309;42.682;23.372;2023-05-13T12:28:08;95633.00;;;18.91;41.96
43711;BME280;29309;42.682;23.372;2023-05-13T12:30:39;95620.91;;;18.86;42.02
43711;BME280;29309;42.682;23.372;2023-05-13T12:33:11;95630.06;;;18.87;42.86
43711;BME280;29309;42.682;23.372;2023-05-13T12:35:37;95627.38;;;18.91;42.43
43711;BME280;29309;42.682;23.372;2023-05-13T12:38:04;95625.31;;;18.93;42.55
43711;BME280;29309;42.682;23.372;2023-05-13T12:40:30;95617.63;;;18.96;42.51
43711;BME280;29309;42.682;23.372;2023-05-13T12:42:57;95614.81;;;18.96;41.81
43711;BME280;29309;42.682;23.372;2023-05-13T12:45:26;95614.75;;;18.92;41.66
43711;BME280;29309;42.682;23.372;2023-05-13T12:47:51;95619.69;;;18.93;42.23
43711;BME280;29309;42.682;23.372;2023-05-13T12:50:18;95604.28;;;18.96;42.24
43711;BME280;29309;42.682;23.372;2023-05-13T12:52:43;95612.97;;;19.06;42.21
43711;BME280;29309;42.682;23.372;2023-05-13T12:55:09;95603.91;;;19.10;41.96
43711;BME280;29309;42.682;23.372;2023-05-13T12:57:36;95611.16;;;19.19;41.93
43711;BME280;29309;42.682;23.372;2023-05-13T13:00:02;95602.06;;;19.21;41.43
43711;BME280;29309;42.682;23.372;2023-05-13T13:02:27;95600.72;;;19.24;41.26
43711;BME280;29309;42.682;23.372;2023-05-13T13:04:52;95603.56;;;19.26;41.10
43711;BME280;29309;42.682;23.372;2023-05-13T13:07:18;95602.38;;;19.35;41.08
43711;BME280;29309;42.682;23.372;2023-05-13T13:09:43;95604.75;;;19.46;41.57